Time;durP1;ratioP1;P1;durP2;ratioP2;P2;SDS_P1;SDS_P2;PMS_P1;PMS_P2;Temp;Humidity;BMP_temperature;BMP_pressure;BME280_temperature;BME280_humidity;BME280_pressure;Samples;Min_cycle;Max_cycle;Signal;HPM_P1;HPM_P2
2022/10/15 00:00:37;;;;;;;276.25;60.47;;;11.30;99.90;;;;;;5069323;28;20068;-72
2022/10/15 00:03:03;;;;;;;275.98;62.13;;;11.60;99.90;;;;;;5043019;28;20120;-72
2022/10/15 00:05:29;;;;;;;294.08;61.80;;;11.60;99.90;;;;;;5042581;28;20238;-71
2022/10/15 00:07:55;;;;;;;316.88;62.55;;;11.60;99.90;;;;;;5071002;28;20080;-72
2022/10/15 00:10:21;;;;;;;335.02;63.25;;;11.50;99.90;;;;;;5043162;28;20116;-72
2022/10/15 00:12:47;;;;;;;211.10;55.28;;;11.50;99.90;;;;;;5045625;28;20056;-71
2022/10/15 00:15:13;;;;;;;219.07;55.58;;;11.50;99.90;;;;;;5045301;28;20733;-71
2022/10/15 00:17:39;;;;;;;269.70;60.80;;;11.60;99.90;;;;;;5044553;28;20059;-71
2022/10/15 00:20:07;;;;;;;344.48;63.90;;;11.60;99.90;;;;;;5040275;28;20041;-71
2022/10/15 00:22:33;;;;;;;285.13;61.47;;;11.50;99.90;;;;;;5036772;28;20403;-71
2022/10/15 00:24:59;;;;;;;255.60;59.08;;;11.60;99.90;;;;;;5041859;28;20505;-71
2022/10/15 00:27:24;;;;;;;244.85;58.67;;;11.50;99.90;;;;;;5069557;28;20051;-71
2022/10/15 00:29:50;;;;;;;268.90;59.25;;;11.50;99.90;;;;;;5040219;28;20037;-72
2022/10/15 00:32:16;;;;;;;359.25;66.47;;;11.60;99.90;;;;;;5037276;28;20041;-71
2022/10/15 00:34:42;;;;;;;312.52;63.00;;;11.60;99.90;;;;;;5045772;28;20041;-71
2022/10/15 00:37:08;;;;;;;280.02;59.75;;;11.70;99.90;;;;;;5040420;28;20183;-71
2022/10/15 00:39:35;;;;;;;307.45;63.45;;;11.70;99.90;;;;;;5046237;28;20037;-71
2022/10/15 00:42:00;;;;;;;286.55;61.22;;;11.50;99.90;;;;;;5040195;28;20084;-72
2022/10/15 00:44:29;;;;;;;218.93;57.70;;;11.50;99.90;;;;;;5037563;28;20100;-72
2022/10/15 00:47:36;;;;;;;233.98;58.67;;;11.70;99.90;;;;;;5043096;28;20120;-72
2022/10/15 00:50:18;;;;;;;290.50;61.67;;;11.70;99.90;;;;;;4999848;28;20072;-72
2022/10/15 00:52:59;;;;;;;210.85;56.80;;;11.60;99.90;;;;;;5040569;28;20040;-71
2022/10/15 00:55:32;;;;;;;221.57;57.67;;;11.60;99.90;;;;;;5071713;28;20037;-71
2022/10/15 00:58:05;;;;;;;217.50;55.72;;;11.60;99.90;;;;;;5035524;28;20052;-72
2022/10/15 01:00:31;;;;;;;297.70;64.20;;;11.70;99.90;;;;;;5035502;28;20119;-72
2022/10/15 01:02:57;;;;;;;278.58;59.70;;;11.60;99.90;;;;;;5034137;28;20547;-72
2022/10/15 01:05:23;;;;;;;218.65;57.40;;;11.70;99.90;;;;;;5033952;28;20040;-72
2022/10/15 01:07:49;;;;;;;222.70;57.92;;;11.60;99.90;;;;;;5031632;28;20064;-71
2022/10/15 01:10:16;;;;;;;283.77;59.50;;;11.70;99.90;;;;;;5033508;28;20422;-72
2022/10/15 01:12:57;;;;;;;263.35;58.90;;;11.70;99.90;;;;;;5015219;28;20052;-72
2022/10/15 01:15:35;;;;;;;220.95;56.17;;;11.70;99.90;;;;;;5039272;28;20060;-72
2022/10/15 01:18:10;;;;;;;278.75;59.33;;;11.70;99.90;;;;;;5030780;28;20041;-72
2022/10/15 01:21:17;;;;;;;298.92;62.28;;;11.70;99.90;;;;;;5038796;28;20040;-72
2022/10/15 01:24:08;;;;;;;251.50;59.03;;;11.70;99.90;;;;;;5037261;28;20044;-72
2022/10/15 01:26:47;;;;;;;205.93;55.13;;;11.70;99.90;;;;;;5032841;28;20080;-72
2022/10/15 01:29:30;;;;;;;255.88;58.55;;;11.70;99.90;;;;;;5037174;28;20252;-72
2022/10/15 01:32:02;;;;;;;;;;;11.50;99.90;;;;;;5024858;28;20070;-72
2022/10/15 01:34:45;;;;;;;196.23;52.95;;;11.70;99.90;;;;;;5050366;28;19917;-71
2022/10/15 01:37:22;;;;;;;207.57;55.35;;;11.60;99.90;;;;;;5033358;28;20049;-71
2022/10/15 01:39:56;;;;;;;224.63;55.55;;;11.60;99.90;;;;;;5036405;28;20037;-71
2022/10/15 01:42:27;;;;;;;175.77;51.60;;;11.70;99.90;;;;;;5034879;28;20318;-71
2022/10/15 01:44:59;;;;;;;213.55;56.13;;;11.60;99.90;;;;;;5066268;28;20121;-71
2022/10/15 01:47:51;;;;;;;182.93;53.90;;;11.70;99.90;;;;;;5033334;28;20079;-72
2022/10/15 01:50:21;;;;;;;180.88;52.78;;;11.60;99.90;;;;;;5036211;28;20388;-72
2022/10/15 01:52:49;;;;;;;180.43;52.55;;;11.70;99.90;;;;;;5032296;28;20052;-71
2022/10/15 01:55:15;;;;;;;183.48;52.85;;;11.70;99.90;;;;;;5053510;28;20684;-72
2022/10/15 01:57:43;;;;;;;193.48;52.45;;;11.70;99.90;;;;;;5044809;28;20107;-70
2022/10/15 02:00:10;;;;;;;211.27;53.08;;;11.60;99.90;;;;;;5068193;28;20083;-71
2022/10/15 02:02:36;;;;;;;188.70;48.92;;;11.70;99.90;;;;;;5042599;28;20388;-71
2022/10/15 02:05:04;;;;;;;181.13;49.58;;;11.60;99.90;;;;;;5038149;28;20041;-71
2022/10/15 02:07:58;;;;;;;170.07;47.53;;;11.70;99.90;;;;;;5036793;28;20045;-71
2022/10/15 02:10:45;;;;;;;166.85;46.88;;;11.70;99.90;;;;;;5039166;28;20127;-72
2022/10/15 02:13:36;;;;;;;161.75;47.97;;;11.50;99.90;;;;;;5037975;28;20051;-72
2022/10/15 02:16:35;;;;;;;164.60;47.60;;;11.70;99.90;;;;;;5036139;28;20037;-71
2022/10/15 02:19:11;;;;;;;153.88;47.03;;;11.50;99.90;;;;;;5059691;28;20892;-71
2022/10/15 02:21:43;;;;;;;164.25;47.80;;;11.60;99.90;;;;;;5037195;28;20128;-71
2022/10/15 02:24:13;;;;;;;;;;;11.60;99.90;;;;;;5066647;28;20361;-71
2022/10/15 02:26:40;;;;;;;157.43;45.05;;;11.60;99.90;;;;;;5052951;28;20433;-71
2022/10/15 02:29:09;;;;;;;156.05;45.80;;;11.60;99.90;;;;;;5033724;28;20041;-71
2022/10/15 02:31:37;;;;;;;181.90;48.53;;;11.60;99.90;;;;;;5064494;28;20115;-71
2022/10/15 02:34:10;;;;;;;159.68;46.30;;;11.60;99.90;;;;;;5041410;28;20068;-71
2022/10/15 02:36:38;;;;;;;149.95;45.38;;;11.60;99.90;;;;;;5066697;28;20044;-71
2022/10/15 02:39:06;;;;;;;166.00;46.13;;;11.50;99.90;;;;;;5037782;28;20719;-71
2022/10/15 02:41:34;;;;;;;163.82;47.20;;;11.50;99.90;;;;;;5034971;28;20519;-71
2022/10/15 02:44:00;;;;;;;162.68;47.47;;;11.60;99.90;;;;;;5068224;28;20053;-71
2022/10/15 02:46:25;;;;;;;178.63;49.67;;;11.60;99.90;;;;;;5038282;28;20047;-71
2022/10/15 02:48:51;;;;;;;167.23;47.38;;;11.50;99.90;;;;;;5040921;28;20029;-71
2022/10/15 02:51:16;;;;;;;174.73;47.85;;;11.70;99.90;;;;;;5038829;28;20044;-71
2022/10/15 02:53:42;;;;;;;160.13;46.20;;;11.60;99.90;;;;;;5036229;28;20084;-70
2022/10/15 02:56:08;;;;;;;172.50;48.72;;;11.70;99.90;;;;;;5033172;28;20501;-71
2022/10/15 02:58:33;;;;;;;166.85;49.08;;;11.70;99.90;;;;;;5038495;28;20391;-71
2022/10/15 03:00:59;;;;;;;160.02;47.65;;;11.50;99.90;;;;;;5037547;28;20584;-71
2022/10/15 03:03:25;;;;;;;183.48;50.47;;;11.50;99.90;;;;;;5035400;28;21302;-71
2022/10/15 03:05:50;;;;;;;186.85;50.58;;;11.70;99.90;;;;;;5068695;28;20044;-71
2022/10/15 03:08:16;;;;;;;195.50;51.28;;;11.60;99.90;;;;;;5035398;28;20041;-71
2022/10/15 03:10:42;;;;;;;189.48;51.33;;;11.60;99.90;;;;;;5036385;28;20064;-71
2022/10/15 03:13:07;;;;;;;189.10;50.65;;;11.60;99.90;;;;;;5034803;28;20468;-72
2022/10/15 03:15:33;;;;;;;215.30;53.25;;;11.70;99.90;;;;;;5039522;28;20048;-71
2022/10/15 03:17:58;;;;;;;196.45;53.17;;;11.60;99.90;;;;;;5035066;28;20084;-71
2022/10/15 03:20:24;;;;;;;195.45;51.90;;;11.70;99.90;;;;;;5037273;28;20079;-71
2022/10/15 03:22:50;;;;;;;203.20;53.55;;;11.50;99.90;;;;;;5032956;28;20064;-71
2022/10/15 03:25:15;;;;;;;227.45;57.08;;;11.60;99.90;;;;;;5038183;28;20556;-71
2022/10/15 03:27:41;;;;;;;240.73;56.40;;;11.60;99.90;;;;;;5069150;28;20633;-72
2022/10/15 03:30:07;;;;;;;200.05;53.40;;;11.50;99.90;;;;;;5036676;28;20114;-71
2022/10/15 03:32:33;;;;;;;226.80;57.25;;;11.40;99.90;;;;;;5034508;28;20069;-74
2022/10/15 03:34:59;;;;;;;227.90;57.38;;;11.60;99.90;;;;;;5042183;28;20077;-72
2022/10/15 03:37:24;;;;;;;233.88;56.88;;;11.50;99.90;;;;;;5022320;28;20811;-70
2022/10/15 03:39:50;;;;;;;256.27;61.13;;;11.40;99.90;;;;;;5038939;28;20048;-72
2022/10/15 03:42:15;;;;;;;253.27;59.97;;;11.50;99.90;;;;;;5059261;28;20063;-72
2022/10/15 03:44:41;;;;;;;254.02;61.92;;;11.40;99.90;;;;;;5039431;28;20052;-71
2022/10/15 03:47:06;;;;;;;261.38;63.50;;;11.50;99.90;;;;;;5037566;28;20135;-72
2022/10/15 03:49:32;;;;;;;246.50;59.92;;;11.40;99.90;;;;;;5038979;28;20565;-72
2022/10/15 03:51:58;;;;;;;284.08;64.25;;;11.30;99.90;;;;;;5037870;28;20036;-72
2022/10/15 03:54:23;;;;;;;283.08;64.53;;;11.30;99.90;;;;;;5039981;28;20037;-72
2022/10/15 03:56:49;;;;;;;217.02;60.67;;;11.50;99.90;;;;;;5042266;28;20491;-72
2022/10/15 03:59:15;;;;;;;232.00;60.75;;;11.40;99.90;;;;;;5039583;28;20124;-72
2022/10/15 04:01:42;;;;;;;286.55;65.85;;;11.40;99.90;;;;;;5070360;28;20044;-72
2022/10/15 04:04:09;;;;;;;292.98;65.65;;;11.30;99.90;;;;;;5039825;28;20147;-71
2022/10/15 04:06:34;;;;;;;305.67;67.97;;;11.30;99.90;;;;;;5041699;28;20039;-71
2022/10/15 04:09:00;;;;;;;242.75;63.50;;;11.30;99.90;;;;;;5022439;28;20122;-72
2022/10/15 04:11:25;;;;;;;316.95;66.70;;;11.30;99.90;;;;;;5038934;28;20499;-72
2022/10/15 04:13:51;;;;;;;229.40;62.00;;;11.40;99.90;;;;;;5041407;28;20120;-72
2022/10/15 04:16:17;;;;;;;289.13;64.85;;;11.20;99.90;;;;;;5037535;28;20045;-72
2022/10/15 04:18:43;;;;;;;258.15;61.63;;;11.10;99.90;;;;;;5037261;28;20487;-72
2022/10/15 04:21:09;;;;;;;364.08;68.00;;;11.20;99.90;;;;;;5035593;28;20487;-72
2022/10/15 04:23:34;;;;;;;258.33;63.08;;;11.10;99.90;;;;;;5068186;28;20036;-72
2022/10/15 04:26:00;;;;;;;315.17;66.18;;;11.10;99.90;;;;;;5041702;28;20037;-71
2022/10/15 04:28:27;;;;;;;302.05;64.20;;;11.10;99.90;;;;;;5039510;28;20129;-72
2022/10/15 04:30:57;;;;;;;340.20;67.03;;;11.00;99.90;;;;;;5039397;28;21289;-71
2022/10/15 04:33:22;;;;;;;280.35;63.22;;;11.00;99.90;;;;;;5035100;28;20150;-72
2022/10/15 04:36:07;;;;;;;377.38;67.85;;;11.10;99.90;;;;;;5069550;28;20483;-71
2022/10/15 04:38:33;;;;;;;391.55;70.90;;;11.10;99.90;;;;;;5030168;28;20383;-71
2022/10/15 04:41:01;;;;;;;376.15;68.45;;;11.00;99.90;;;;;;5033622;28;20452;-71
2022/10/15 04:43:27;;;;;;;332.58;68.22;;;10.90;99.90;;;;;;5040463;28;20044;-72
2022/10/15 04:46:01;;;;;;;383.35;68.38;;;10.90;99.90;;;;;;5036419;28;20037;-71
2022/10/15 04:48:28;;;;;;;329.92;67.40;;;11.00;99.90;;;;;;5036431;28;20671;-71
2022/10/15 04:50:54;;;;;;;345.05;69.22;;;10.90;99.90;;;;;;5035713;28;20059;-71
2022/10/15 04:53:20;;;;;;;309.65;67.43;;;11.00;99.90;;;;;;5036194;28;20032;-71
2022/10/15 04:55:46;;;;;;;327.63;65.10;;;11.00;99.90;;;;;;5040060;28;20054;-71
2022/10/15 04:58:12;;;;;;;370.40;67.50;;;11.00;99.90;;;;;;5068316;28;20041;-71
2022/10/15 05:00:38;;;;;;;334.50;66.40;;;11.10;99.90;;;;;;5040371;28;20034;-71
2022/10/15 05:03:05;;;;;;;417.77;73.55;;;10.90;99.90;;;;;;5033487;28;20040;-71
2022/10/15 05:05:31;;;;;;;304.70;65.65;;;11.00;99.90;;;;;;5033591;28;20037;-72
2022/10/15 05:08:02;;;;;;;353.75;69.03;;;11.10;99.90;;;;;;5039183;28;20056;-70
2022/10/15 05:10:28;;;;;;;387.58;70.18;;;11.00;99.90;;;;;;5036882;28;20630;-71
2022/10/15 05:12:53;;;;;;;311.83;66.63;;;11.10;99.90;;;;;;5039852;28;20056;-72
2022/10/15 05:15:19;;;;;;;387.77;71.47;;;11.00;99.90;;;;;;5041094;28;20418;-72
2022/10/15 05:17:44;;;;;;;441.33;75.82;;;11.20;99.90;;;;;;5036219;28;20139;-71
2022/10/15 05:20:10;;;;;;;356.08;69.00;;;11.20;99.90;;;;;;5034041;28;20037;-72
2022/10/15 05:22:36;;;;;;;379.85;69.13;;;11.20;99.90;;;;;;5034137;28;20029;-72
2022/10/15 05:25:01;;;;;;;363.42;67.05;;;11.10;99.90;;;;;;5037001;28;20075;-71
2022/10/15 05:27:27;;;;;;;314.70;66.80;;;11.30;99.90;;;;;;5033175;28;20641;-72
2022/10/15 05:29:53;;;;;;;329.45;68.82;;;11.20;99.90;;;;;;5032272;28;20084;-71
2022/10/15 05:32:18;;;;;;;309.40;65.40;;;11.10;99.90;;;;;;5036091;28;20132;-71
2022/10/15 05:34:44;;;;;;;326.30;67.00;;;11.30;99.90;;;;;;5022184;28;20139;-72
2022/10/15 05:37:09;;;;;;;349.30;70.75;;;11.30;99.90;;;;;;5029552;28;20049;-73
2022/10/15 05:39:35;;;;;;;365.52;71.97;;;11.30;99.90;;;;;;5035450;28;20064;-72
2022/10/15 05:42:00;;;;;;;397.77;73.80;;;11.40;99.90;;;;;;5035119;28;20487;-71
2022/10/15 05:44:26;;;;;;;317.65;69.55;;;11.20;99.90;;;;;;5068837;28;20454;-73
2022/10/15 05:46:52;;;;;;;289.58;65.30;;;11.40;99.90;;;;;;5041472;28;20039;-72
2022/10/15 05:49:18;;;;;;;323.55;67.75;;;11.30;99.90;;;;;;5038796;28;20883;-71
2022/10/15 05:51:43;;;;;;;310.70;66.97;;;11.30;99.90;;;;;;5023151;28;20544;-72
2022/10/15 05:54:09;;;;;;;285.40;63.67;;;11.20;99.90;;;;;;5039802;28;20044;-72
2022/10/15 05:56:34;;;;;;;349.50;66.78;;;11.30;99.90;;;;;;5033596;28;20068;-72
2022/10/15 05:59:01;;;;;;;292.98;64.15;;;11.30;99.90;;;;;;5032408;28;20053;-72
2022/10/15 06:01:27;;;;;;;292.75;64.93;;;11.30;99.90;;;;;;5039046;28;20452;-72
2022/10/15 06:03:52;;;;;;;355.40;68.88;;;11.40;99.90;;;;;;5035120;28;20072;-73
2022/10/15 06:06:25;;;;;;;357.05;68.75;;;11.30;99.90;;;;;;5035207;28;20550;-72
2022/10/15 06:08:51;;;;;;;373.38;71.80;;;11.30;99.90;;;;;;5029205;28;20048;-72
2022/10/15 06:11:17;;;;;;;326.42;66.72;;;11.40;99.90;;;;;;5036891;28;20439;-72
2022/10/15 06:13:44;;;;;;;283.33;64.80;;;11.50;99.90;;;;;;5038965;28;20091;-73
2022/10/15 06:16:11;;;;;;;295.77;66.18;;;11.50;99.90;;;;;;5034228;28;20044;-73
2022/10/15 06:18:37;;;;;;;355.35;70.22;;;11.50;99.90;;;;;;5035076;28;20045;-72
2022/10/15 06:21:04;;;;;;;324.00;69.80;;;11.50;99.90;;;;;;5069134;28;20720;-72
2022/10/15 06:23:29;;;;;;;350.30;72.63;;;11.40;99.90;;;;;;5034155;28;20068;-71
2022/10/15 06:25:55;;;;;;;302.10;64.18;;;11.60;99.90;;;;;;5034757;28;20120;-71
2022/10/15 06:28:21;;;;;;;351.90;68.32;;;11.40;99.90;;;;;;5035949;28;20053;-71
2022/10/15 06:30:46;;;;;;;290.83;66.45;;;11.60;99.90;;;;;;5038506;28;20041;-71
2022/10/15 06:33:14;;;;;;;334.83;68.18;;;11.50;99.90;;;;;;5043806;28;20538;-71
2022/10/15 06:35:40;;;;;;;265.05;62.55;;;11.50;99.90;;;;;;5038816;28;20037;-72
2022/10/15 06:38:06;;;;;;;263.60;63.28;;;11.60;99.90;;;;;;5037669;28;20041;-72
2022/10/15 06:40:32;;;;;;;286.63;65.95;;;11.50;99.90;;;;;;5036555;28;20037;-70
2022/10/15 06:43:06;;;;;;;284.58;64.30;;;11.70;99.90;;;;;;5039672;28;20102;-70
2022/10/15 06:45:35;;;;;;;293.60;64.28;;;11.70;99.90;;;;;;5041350;28;20094;-70
2022/10/15 06:48:02;;;;;;;269.98;63.08;;;11.60;99.90;;;;;;5041864;28;20229;-70
2022/10/15 06:50:28;;;;;;;384.85;72.60;;;11.70;99.90;;;;;;5043229;28;20075;-70
2022/10/15 06:52:53;;;;;;;283.55;65.95;;;11.70;99.90;;;;;;5037989;28;20495;-71
2022/10/15 06:55:19;;;;;;;316.67;66.18;;;11.80;99.90;;;;;;5036908;28;20420;-71
2022/10/15 06:57:44;;;;;;;293.92;64.95;;;11.80;99.90;;;;;;5039804;28;20041;-71
2022/10/15 07:00:11;;;;;;;251.30;62.35;;;11.90;99.90;;;;;;5035131;28;20029;-71
2022/10/15 07:02:36;;;;;;;262.95;63.00;;;11.90;99.90;;;;;;5037212;28;20033;-71
2022/10/15 07:05:02;;;;;;;281.02;64.35;;;11.80;99.90;;;;;;5061325;28;20083;-71
2022/10/15 07:07:27;;;;;;;342.70;69.80;;;11.80;99.90;;;;;;5041551;28;20076;-71
2022/10/15 07:09:54;;;;;;;254.30;62.38;;;11.90;99.90;;;;;;5042397;28;20045;-71
2022/10/15 07:12:21;;;;;;;274.98;64.50;;;12.00;99.90;;;;;;5044120;28;20048;-74
2022/10/15 07:14:48;;;;;;;296.63;66.65;;;12.10;99.90;;;;;;5045227;28;20036;-71
2022/10/15 07:17:14;;;;;;;374.60;70.03;;;11.90;99.90;;;;;;5044637;28;20045;-71
2022/10/15 07:19:40;;;;;;;242.43;63.25;;;11.90;99.90;;;;;;5037880;28;20056;-71
2022/10/15 07:22:05;;;;;;;360.67;68.50;;;12.00;99.90;;;;;;5038317;28;20037;-71
2022/10/15 07:24:31;;;;;;;284.45;65.68;;;12.00;99.90;;;;;;5042861;28;20037;-70
2022/10/15 07:26:57;;;;;;;249.93;61.55;;;11.90;99.90;;;;;;5043082;28;20040;-71
2022/10/15 07:29:22;;;;;;;280.83;65.72;;;11.70;99.90;;;;;;5042899;28;20094;-72
2022/10/15 07:31:48;;;;;;;274.55;66.15;;;11.80;99.90;;;;;;5077915;28;20491;-71
2022/10/15 07:34:13;;;;;;;301.50;67.18;;;11.80;99.90;;;;;;5042047;28;20040;-72
2022/10/15 07:36:39;;;;;;;385.30;73.68;;;11.70;99.90;;;;;;5041217;28;20037;-71
2022/10/15 07:39:04;;;;;;;250.27;64.38;;;11.80;99.90;;;;;;5077324;28;20539;-72
2022/10/15 07:41:30;;;;;;;239.88;64.10;;;11.80;99.90;;;;;;5038331;28;20488;-71
2022/10/15 07:43:56;;;;;;;267.63;66.68;;;11.80;99.90;;;;;;5046604;28;20041;-72
2022/10/15 07:46:22;;;;;;;358.25;74.03;;;11.80;99.90;;;;;;5074592;28;20385;-74
2022/10/15 07:48:47;;;;;;;326.20;72.32;;;11.90;99.90;;;;;;5038120;28;20237;-71
2022/10/15 07:51:13;;;;;;;297.27;70.22;;;11.80;99.90;;;;;;5043340;28;20097;-71
2022/10/15 07:53:38;;;;;;;281.92;68.47;;;11.90;99.90;;;;;;5037775;28;20388;-74
2022/10/15 07:56:06;;;;;;;293.75;72.70;;;12.00;99.90;;;;;;5039915;28;20037;-73
2022/10/15 07:58:37;;;;;;;301.83;72.72;;;11.90;99.90;;;;;;5038274;28;20037;-73
2022/10/15 08:01:04;;;;;;;272.42;69.57;;;12.00;99.90;;;;;;5047868;28;20056;-74
2022/10/15 08:03:30;;;;;;;333.67;76.90;;;12.00;99.90;;;;;;5045122;28;20041;-72
2022/10/15 08:05:58;;;;;;;295.42;72.10;;;12.10;99.90;;;;;;5071819;28;20048;-75
2022/10/15 08:08:24;;;;;;;321.83;75.50;;;12.20;99.90;;;;;;5040519;28;20097;-72
2022/10/15 08:10:49;;;;;;;347.02;75.70;;;12.30;99.90;;;;;;5043161;28;20048;-71
2022/10/15 08:13:15;;;;;;;376.85;76.80;;;12.30;99.90;;;;;;5050587;28;20419;-72
2022/10/15 08:15:41;;;;;;;301.15;72.00;;;12.30;99.90;;;;;;5044066;28;20042;-72
2022/10/15 08:18:08;;;;;;;370.15;79.22;;;12.50;99.90;;;;;;5031182;28;20049;-73
2022/10/15 08:20:36;;;;;;;369.25;78.63;;;12.40;99.90;;;;;;5054300;28;20098;-74
2022/10/15 08:23:01;;;;;;;328.58;76.10;;;12.40;99.90;;;;;;5039202;28;20404;-73
2022/10/15 08:25:27;;;;;;;370.92;77.28;;;12.60;99.90;;;;;;5051007;28;20066;-74
2022/10/15 08:27:55;;;;;;;366.75;74.30;;;12.50;99.90;;;;;;5049248;28;20045;-72
2022/10/15 08:30:21;;;;;;;345.20;75.13;;;12.50;99.90;;;;;;5033199;28;20111;-72
2022/10/15 08:32:46;;;;;;;330.73;71.70;;;12.60;99.90;;;;;;5031712;28;20045;-76
2022/10/15 08:35:12;;;;;;;336.90;73.68;;;12.70;99.90;;;;;;5029200;28;20115;-73
2022/10/15 08:37:37;;;;;;;334.90;71.95;;;12.70;99.90;;;;;;5040595;28;20051;-71
2022/10/15 08:40:05;;;;;;;310.88;65.05;;;12.70;99.90;;;;;;5046253;28;20087;-74
2022/10/15 08:42:40;;;;;;;289.42;67.32;;;12.70;99.90;;;;;;5050568;28;20033;-73
2022/10/15 08:45:34;;;;;;;276.30;64.18;;;12.80;99.90;;;;;;5050558;28;20083;-73
2022/10/15 08:48:05;;;;;;;327.02;64.90;;;12.70;99.90;;;;;;5040761;28;20063;-72
2022/10/15 08:50:44;;;;;;;282.38;63.88;;;12.70;99.90;;;;;;5031116;28;20124;-71
2022/10/15 08:53:18;;;;;;;304.70;62.05;;;12.80;99.90;;;;;;5064856;28;20123;-72
2022/10/15 08:55:48;;;;;;;292.30;61.28;;;12.80;99.90;;;;;;5078422;28;20111;-71
2022/10/15 08:58:29;;;;;;;272.63;58.50;;;12.90;99.90;;;;;;5039077;28;20048;-70
2022/10/15 09:01:05;;;;;;;264.55;57.83;;;12.90;99.90;;;;;;5039171;28;20128;-72
2022/10/15 09:03:51;;;;;;;230.65;54.90;;;12.90;99.90;;;;;;5042368;28;20105;-71
2022/10/15 09:06:28;;;;;;;252.90;55.03;;;13.00;99.90;;;;;;5038438;28;20106;-74
2022/10/15 09:09:06;;;;;;;244.65;53.80;;;13.00;99.90;;;;;;5047892;28;20049;-74
2022/10/15 09:11:55;;;;;;;217.02;50.75;;;13.00;99.90;;;;;;5049619;28;20033;-75
2022/10/15 09:14:27;;;;;;;207.88;48.67;;;13.10;99.90;;;;;;5049582;28;20471;-72
2022/10/15 09:16:53;;;;;;;208.82;48.95;;;13.00;99.90;;;;;;5044443;28;20059;-71
2022/10/15 09:19:22;;;;;;;183.90;47.22;;;13.00;99.90;;;;;;5039438;28;20263;-72
2022/10/15 09:21:50;;;;;;;169.95;45.00;;;13.00;99.90;;;;;;5042045;28;20056;-75
2022/10/15 09:24:23;;;;;;;153.52;41.03;;;13.20;99.90;;;;;;5042701;28;20468;-72
2022/10/15 09:27:08;;;;;;;145.85;39.75;;;13.10;99.90;;;;;;5036127;28;20067;-73
2022/10/15 09:29:49;;;;;;;150.25;38.65;;;13.30;99.90;;;;;;5038286;28;20399;-71
2022/10/15 09:32:33;;;;;;;140.15;37.30;;;13.30;99.90;;;;;;5024939;28;20399;-71
2022/10/15 09:35:05;;;;;;;132.57;36.53;;;13.40;99.90;;;;;;5039207;28;20061;-72
2022/10/15 09:37:58;;;;;;;130.90;36.67;;;13.50;99.90;;;;;;5039707;28;20048;-71
2022/10/15 09:40:27;;;;;;;;;;;13.60;99.90;;;;;;5049510;28;20492;-73
2022/10/15 09:42:58;;;;;;;138.73;37.65;;;13.80;99.90;;;;;;5043669;28;19974;-72
2022/10/15 09:45:24;;;;;;;130.97;37.87;;;13.80;99.90;;;;;;5047867;28;20049;-72
2022/10/15 09:47:51;;;;;;;132.27;37.53;;;14.00;99.90;;;;;;5044605;28;20372;-74
2022/10/15 09:50:17;;;;;;;132.73;36.53;;;14.20;99.90;;;;;;5048215;28;20880;-72
2022/10/15 09:53:01;;;;;;;119.78;34.08;;;14.20;99.90;;;;;;5046404;28;20098;-72
2022/10/15 09:55:42;;;;;;;106.85;33.63;;;14.30;99.90;;;;;;5044317;28;20400;-72
2022/10/15 09:58:17;;;;;;;112.10;33.70;;;14.20;99.90;;;;;;5044583;28;20090;-73
2022/10/15 10:01:03;;;;;;;117.03;32.67;;;14.30;99.90;;;;;;5044077;28;20111;-75
2022/10/15 10:03:35;;;;;;;107.60;31.52;;;14.20;99.90;;;;;;5039641;28;20045;-72
2022/10/15 10:06:11;;;;;;;;;;;14.20;99.90;;;;;;5040238;28;20079;-76
2022/10/15 10:08:58;;;;;;;94.75;29.85;;;14.10;99.90;;;;;;5050528;28;19996;-73
2022/10/15 10:11:25;;;;;;;100.32;30.23;;;14.10;99.90;;;;;;5043998;28;20056;-72
2022/10/15 10:13:57;;;;;;;101.88;31.58;;;14.20;99.90;;;;;;5040610;28;20044;-72
2022/10/15 10:16:23;;;;;;;100.60;31.73;;;14.40;99.90;;;;;;5039159;28;20045;-73
2022/10/15 10:19:04;;;;;;;99.30;31.40;;;14.60;99.90;;;;;;5040906;28;20049;-72
2022/10/15 10:21:32;;;;;;;103.60;32.85;;;14.70;99.90;;;;;;5043022;28;20461;-75
2022/10/15 10:24:19;;;;;;;104.80;31.80;;;14.90;99.90;;;;;;5036247;28;20029;-73
2022/10/15 10:26:46;;;;;;;98.63;31.33;;;14.90;99.90;;;;;;5041459;28;20117;-71
2022/10/15 10:29:19;;;;;;;108.15;32.22;;;14.90;99.90;;;;;;5048488;28;20162;-74
2022/10/15 10:31:48;;;;;;;95.63;30.02;;;14.80;99.90;;;;;;5036715;28;20120;-75
2022/10/15 10:34:18;;;;;;;96.28;31.13;;;14.90;99.90;;;;;;5038439;28;20093;-75
2022/10/15 10:36:49;;;;;;;91.57;31.85;;;14.90;99.90;;;;;;5041641;28;20372;-76
2022/10/15 10:39:27;;;;;;;92.63;32.03;;;14.80;99.90;;;;;;5041561;28;20415;-73
2022/10/15 10:42:01;;;;;;;91.47;30.50;;;14.90;99.90;;;;;;5041040;28;20045;-75
2022/10/15 10:44:37;;;;;;;92.40;29.85;;;14.80;99.90;;;;;;5069763;28;20381;-73
2022/10/15 10:47:22;;;;;;;100.03;32.15;;;14.60;99.90;;;;;;5046509;28;20114;-73
2022/10/15 10:49:54;;;;;;;98.25;31.75;;;14.70;99.90;;;;;;5077923;28;20055;-74
2022/10/15 10:52:24;;;;;;;92.90;31.33;;;14.70;99.90;;;;;;5046234;28;20040;-74
2022/10/15 10:55:16;;;;;;;98.30;31.70;;;14.60;99.90;;;;;;5047217;28;20127;-73
2022/10/15 10:57:44;;;;;;;93.28;29.60;;;14.70;99.90;;;;;;5034624;28;20075;-75
2022/10/15 11:00:28;;;;;;;86.95;28.70;;;14.80;99.90;;;;;;5039309;28;20041;-74
2022/10/15 11:02:54;;;;;;;80.75;29.65;;;14.90;99.90;;;;;;5044009;28;20041;-73
2022/10/15 11:05:25;;;;;;;80.72;29.13;;;15.00;99.90;;;;;;5038196;28;21324;-73
2022/10/15 11:08:37;;;;;;;90.47;30.75;;;15.00;99.90;;;;;;5045273;28;20068;-73
2022/10/15 11:11:30;;;;;;;85.60;29.88;;;15.10;99.90;;;;;;5073199;28;20045;-72
2022/10/15 11:14:08;;;;;;;83.18;29.77;;;15.10;99.90;;;;;;5035577;28;20049;-72
2022/10/15 11:17:16;;;;;;;89.68;31.08;;;15.10;99.90;;;;;;5042740;28;20132;-73
2022/10/15 11:20:04;;;;;;;82.88;29.33;;;15.20;99.90;;;;;;5036409;28;20765;-69
2022/10/15 11:22:30;;;;;;;82.10;28.80;;;15.30;99.90;;;;;;5037606;28;20408;-73
2022/10/15 11:25:20;;;;;;;75.07;28.33;;;15.40;99.90;;;;;;5044149;28;20047;-72
2022/10/15 11:28:10;;;;;;;74.18;27.38;;;15.30;99.90;;;;;;5042156;28;20037;-74
2022/10/15 11:30:54;;;;;;;74.60;28.58;;;15.20;99.90;;;;;;5044577;28;20041;-73
2022/10/15 11:33:29;;;;;;;80.05;27.67;;;15.20;99.90;;;;;;5071989;28;20091;-72
2022/10/15 11:36:23;;;;;;;72.78;27.23;;;15.20;99.90;;;;;;5041055;28;20044;-74
2022/10/15 11:39:06;;;;;;;86.72;29.80;;;15.10;99.90;;;;;;5039787;28;20037;-73
2022/10/15 11:41:40;;;;;;;77.28;27.80;;;15.30;99.90;;;;;;5036306;28;20048;-72
2022/10/15 11:44:21;;;;;;;82.78;29.65;;;15.30;99.90;;;;;;5036460;28;20507;-73
2022/10/15 11:47:03;;;;;;;84.85;29.50;;;15.40;99.90;;;;;;5070128;28;20064;-73
2022/10/15 11:49:42;;;;;;;87.78;29.38;;;15.60;99.90;;;;;;5033465;28;20579;-71
2022/10/15 11:52:26;;;;;;;84.40;29.33;;;15.70;99.90;;;;;;5039090;28;20041;-73
2022/10/15 11:55:13;;;;;;;86.47;30.20;;;15.70;99.90;;;;;;5045238;28;20045;-72
2022/10/15 11:57:40;;;;;;;89.00;30.35;;;15.70;99.90;;;;;;5044615;28;20509;-72
2022/10/15 12:00:41;;;;;;;73.60;27.48;;;15.70;99.90;;;;;;5018036;28;20135;-74
2022/10/15 12:03:16;;;;;;;76.05;27.70;;;15.80;99.90;;;;;;5017703;28;20482;-72
2022/10/15 12:05:50;;;;;;;80.10;27.90;;;15.70;99.90;;;;;;5040599;28;20539;-71
2022/10/15 12:08:18;;;;;;;77.07;28.23;;;15.70;99.90;;;;;;5044225;28;20041;-71
2022/10/15 12:10:59;;;;;;;79.63;28.58;;;15.60;99.90;;;;;;5042917;28;20417;-70
2022/10/15 12:13:39;;;;;;;79.80;28.13;;;15.50;99.90;;;;;;5043733;28;20151;-71
2022/10/15 12:16:26;;;;;;;92.35;29.63;;;15.50;99.90;;;;;;5069782;28;20115;-71
2022/10/15 12:18:56;;;;;;;95.82;29.80;;;15.70;99.90;;;;;;5044632;28;20434;-70
2022/10/15 12:21:33;;;;;;;84.18;29.25;;;15.70;99.90;;;;;;5035183;28;20499;-70
2022/10/15 12:23:59;;;;;;;84.35;29.05;;;15.60;99.90;;;;;;5038768;28;20043;-71
2022/10/15 12:26:31;;;;;;;82.53;28.98;;;15.60;99.90;;;;;;5042086;28;20079;-71
2022/10/15 12:28:58;;;;;;;105.15;31.05;;;15.60;99.90;;;;;;5040799;28;21298;-71
2022/10/15 12:31:24;;;;;;;83.28;27.60;;;15.60;99.90;;;;;;5071706;28;20053;-70
2022/10/15 12:33:55;;;;;;;83.32;27.20;;;15.60;99.90;;;;;;5070055;28;20129;-71
2022/10/15 12:36:29;;;;;;;81.50;27.50;;;15.40;99.90;;;;;;5042316;28;20045;-71
2022/10/15 12:38:59;;;;;;;88.15;27.60;;;15.50;99.90;;;;;;5038870;28;20036;-70